Back to Top

Language: 

My Weather Underground Personal Weather Station Historical Data with Graphs...

Delerius Weather Station Historical Data
Daily Summary for January 17, 2017 Units:  English    Metric   Both
« Previous Day
Next Day »
Daily Weekly Monthly Yearly Custom
  High: Low: Average:
Temperature: 45.9 °F 40.9 °F 43.5 °F
Dew Point: 44.8 °F 40.4 °F 42.8 °F
Humidity: 99 % 96 % 97 %
Wind Speed: 5.0 mph 0.0 mph 0.4 mph
Wind Gust: 8.0 mph - -
Wind:- - SSW
Pressure: 30.58 in 30.44 in -
Precipitation: 0.01 in    
Historical Graphs
 
 
Tabular Data for January 17, 2017
Time Temperature Dew Point Pressure Wind Wind Speed Wind Gust Humidity Rainfall Rate (Hourly) solar Conditions
00:00 41.2 °F 40.7 °F 30.44 in South 2.0 mph 5.0 mph 98 % 0.00 in 0 W/m2
00:05 41.2 °F 40.7 °F 30.45 in SSE 3.0 mph 6.0 mph 98 % 0.00 in 0 W/m2
00:15 41.3 °F 40.8 °F 30.45 in SSE 4.0 mph 4.0 mph 98 % 0.00 in 0 W/m2
00:20 41.3 °F 40.8 °F 30.45 in SE 5.0 mph 5.0 mph 98 % 0.00 in 0 W/m2
00:25 41.2 °F 40.7 °F 30.45 in SSE 5.0 mph 5.0 mph 98 % 0.00 in 0 W/m2
00:30 41.2 °F 40.7 °F 30.45 in South 3.0 mph 3.0 mph 98 % 0.00 in 0 W/m2
00:40 41.2 °F 40.7 °F 30.45 in South 1.0 mph 1.0 mph 98 % 0.00 in 0 W/m2
00:45 41.2 °F 40.7 °F 30.45 in South 1.0 mph 4.0 mph 98 % 0.00 in 0 W/m2
00:50 41.2 °F 40.7 °F 30.46 in SSW 1.0 mph 1.0 mph 98 % 0.00 in 0 W/m2
00:55 41.2 °F 40.7 °F 30.46 in SSW 2.0 mph 2.0 mph 98 % 0.00 in 0 W/m2
01:00 41.2 °F 40.7 °F 30.46 in SSW 2.0 mph 3.0 mph 98 % 0.00 in 0 W/m2
01:05 41.2 °F 40.7 °F 30.46 in SSW 2.0 mph 8.0 mph 98 % 0.00 in 0 W/m2
01:10 41.2 °F 40.7 °F 30.47 in SSW 2.0 mph 2.0 mph 98 % 0.00 in 0 W/m2
01:20 41.2 °F 40.7 °F 30.47 in SSE 2.0 mph 8.0 mph 98 % 0.00 in 0 W/m2
01:25 41.2 °F 40.7 °F 30.47 in SSE 2.0 mph 8.0 mph 98 % 0.00 in 0 W/m2
01:30 41.2 °F 40.7 °F 30.47 in SSE 1.0 mph 1.0 mph 98 % 0.00 in 0 W/m2
01:35 41.2 °F 40.7 °F 30.47 in Calm   8.0 mph 98 % 0.00 in 0 W/m2
01:40 41.2 °F 40.7 °F 30.47 in Calm   8.0 mph 98 % 0.00 in 0 W/m2
01:50 41.2 °F 40.7 °F 30.47 in Calm   8.0 mph 98 % 0.00 in 0 W/m2
01:55 41.2 °F 40.7 °F 30.47 in Calm   8.0 mph 98 % 0.00 in 0 W/m2
02:00 41.1 °F 40.6 °F 30.47 in Calm   8.0 mph 98 % 0.00 in 0 W/m2
02:05 41.1 °F 40.6 °F 30.47 in Calm   8.0 mph 98 % 0.00 in 0 W/m2
02:10 41.1 °F 40.6 °F 30.48 in Calm   8.0 mph 98 % 0.00 in 0 W/m2
02:15 41.1 °F 40.6 °F 30.48 in Calm   8.0 mph 98 % 0.00 in 0 W/m2
02:20 41.1 °F 40.6 °F 30.48 in Calm   8.0 mph 98 % 0.00 in 0 W/m2
02:30 41.0 °F 40.5 °F 30.48 in Calm   8.0 mph 98 % 0.00 in 0 W/m2
02:35 41.0 °F 40.5 °F 30.48 in Calm   8.0 mph 98 % 0.00 in 0 W/m2
02:40 41.1 °F 40.6 °F 30.48 in Calm   8.0 mph 98 % 0.00 in 0 W/m2
02:45 41.1 °F 40.6 °F 30.48 in Calm   8.0 mph 98 % 0.00 in 0 W/m2
02:50 41.0 °F 40.5 °F 30.48 in Calm   8.0 mph 98 % 0.00 in 0 W/m2
02:55 41.0 °F 40.5 °F 30.48 in Calm   8.0 mph 98 % 0.00 in 0 W/m2
03:00 41.0 °F 40.5 °F 30.48 in SE 1.0 mph 8.0 mph 98 % 0.00 in 0 W/m2
03:10 41.0 °F 40.5 °F 30.48 in SE 1.0 mph 1.0 mph 98 % 0.00 in 0 W/m2
03:15 41.0 °F 40.5 °F 30.48 in Calm   8.0 mph 98 % 0.00 in 0 W/m2
03:20 41.0 °F 40.5 °F 30.48 in Calm   8.0 mph 98 % 0.00 in 0 W/m2
03:25 41.0 °F 40.5 °F 30.48 in Calm   8.0 mph 98 % 0.00 in 0 W/m2
03:30 40.9 °F 40.4 °F 30.48 in ENE 1.0 mph 1.0 mph 98 % 0.00 in 0 W/m2
03:40 40.9 °F 40.4 °F 30.47 in SSE 1.0 mph 1.0 mph 98 % 0.00 in 0 W/m2
03:45 40.9 °F 40.4 °F 30.48 in SW 1.0 mph 8.0 mph 98 % 0.00 in 0 W/m2
03:50 40.9 °F 40.4 °F 30.48 in Calm   8.0 mph 98 % 0.00 in 0 W/m2
03:55 40.9 °F 40.4 °F 30.48 in Calm   8.0 mph 98 % 0.00 in 0 W/m2
04:00 40.9 °F 40.4 °F 30.48 in SW 1.0 mph 1.0 mph 98 % 0.00 in 0 W/m2
04:05 41.0 °F 40.5 °F 30.48 in WSW 2.0 mph 2.0 mph 98 % 0.00 in 0 W/m2
04:10 41.0 °F 40.5 °F 30.48 in WSW 2.0 mph 2.0 mph 98 % 0.00 in 0 W/m2
04:20 41.1 °F 40.6 °F 30.48 in Calm   8.0 mph 98 % 0.00 in 0 W/m2
04:25 41.2 °F 40.7 °F 30.48 in Calm   8.0 mph 98 % 0.00 in 0 W/m2
04:30 41.1 °F 40.6 °F 30.48 in Calm   8.0 mph 98 % 0.00 in 0 W/m2
04:35 41.2 °F 40.7 °F 30.48 in Calm   8.0 mph 98 % 0.00 in 0 W/m2
04:40 41.2 °F 40.7 °F 30.48 in Calm   8.0 mph 98 % 0.00 in 0 W/m2
04:45 41.2 °F 40.7 °F 30.48 in Calm   8.0 mph 98 % 0.00 in 0 W/m2
04:55 41.3 °F 40.8 °F 30.48 in Calm   8.0 mph 98 % 0.00 in 0 W/m2
05:00 41.3 °F 40.8 °F 30.48 in Calm   8.0 mph 98 % 0.00 in 0 W/m2
05:05 41.3 °F 40.8 °F 30.48 in Calm   8.0 mph 98 % 0.00 in 0 W/m2
05:10 41.3 °F 40.8 °F 30.48 in Calm   8.0 mph 98 % 0.00 in 0 W/m2
05:15 41.4 °F 40.9 °F 30.48 in Calm   8.0 mph 98 % 0.00 in 0 W/m2
05:20 41.4 °F 40.9 °F 30.48 in Calm   8.0 mph 98 % 0.00 in 0 W/m2
05:25 41.4 °F 40.9 °F 30.48 in Calm   8.0 mph 98 % 0.00 in 0 W/m2
05:35 41.4 °F 41.1 °F 30.48 in Calm   8.0 mph 99 % 0.00 in 0 W/m2
05:40 41.4 °F 41.1 °F 30.48 in Calm   8.0 mph 99 % 0.00 in 0 W/m2
05:45 41.5 °F 41.0 °F 30.49 in Calm   8.0 mph 98 % 0.00 in 0 W/m2
05:50 41.5 °F 41.0 °F 30.49 in Calm   8.0 mph 98 % 0.00 in 0 W/m2
05:55 41.5 °F 41.0 °F 30.49 in Calm   8.0 mph 98 % 0.00 in 0 W/m2
06:00 41.5 °F 41.0 °F 30.49 in Calm   8.0 mph 98 % 0.00 in 0 W/m2
06:10 41.5 °F 41.0 °F 30.49 in Calm   8.0 mph 98 % 0.00 in 0 W/m2
06:15 41.5 °F 41.0 °F 30.49 in Calm   8.0 mph 98 % 0.00 in 0 W/m2
06:25 41.5 °F 41.0 °F 30.49 in South 1.0 mph 8.0 mph 98 % 0.00 in 0 W/m2
06:30 41.5 °F 41.0 °F 30.49 in Calm   8.0 mph 98 % 0.00 in 0 W/m2
06:35 41.4 °F 40.9 °F 30.49 in Calm   8.0 mph 98 % 0.00 in 0 W/m2
06:45 41.3 °F 40.8 °F 30.49 in Calm   8.0 mph 98 % 0.00 in 0 W/m2
06:50 41.3 °F 40.8 °F 30.49 in Calm   8.0 mph 98 % 0.00 in 0 W/m2
07:00 41.3 °F 40.8 °F 30.50 in Calm   8.0 mph 98 % 0.00 in 0 W/m2
07:05 41.2 °F 40.7 °F 30.50 in South 1.0 mph 8.0 mph 98 % 0.00 in 0 W/m2
07:10 41.2 °F 40.7 °F 30.50 in South 1.0 mph 1.0 mph 98 % 0.00 in 0 W/m2
07:15 41.2 °F 40.7 °F 30.50 in Calm   8.0 mph 98 % 0.00 in 0 W/m2
07:25 41.2 °F 40.7 °F 30.50 in Calm   8.0 mph 98 % 0.00 in 0 W/m2
07:35 41.2 °F 40.7 °F 30.51 in Calm   8.0 mph 98 % 0.00 in 0 W/m2
07:40 41.2 °F 40.7 °F 30.51 in Calm   8.0 mph 98 % 0.00 in 0 W/m2
07:45 41.2 °F 40.7 °F 30.51 in Calm   8.0 mph 98 % 0.00 in 0 W/m2
07:50 41.3 °F 40.8 °F 30.51 in Calm   8.0 mph 98 % 0.00 in 0 W/m2
07:55 41.3 °F 40.8 °F 30.51 in Calm   8.0 mph 98 % 0.00 in 0 W/m2
08:00 41.4 °F 40.9 °F 30.52 in Calm   8.0 mph 98 % 0.00 in 0 W/m2
08:05 41.4 °F 40.9 °F 30.52 in Calm   8.0 mph 98 % 0.00 in 0 W/m2
08:15 41.4 °F 41.1 °F 30.52 in Calm   8.0 mph 99 % 0.00 in 0 W/m2
08:20 41.5 °F 41.2 °F 30.52 in Calm   8.0 mph 99 % 0.00 in 0 W/m2
08:25 41.5 °F 41.2 °F 30.52 in Calm   8.0 mph 99 % 0.00 in 0 W/m2
08:30 41.5 °F 41.2 °F 30.52 in Calm   8.0 mph 99 % 0.00 in 0 W/m2
08:35 41.5 °F 41.2 °F 30.52 in Calm   8.0 mph 99 % 0.00 in 5 W/m2
08:40 41.5 °F 41.0 °F 30.52 in Calm   8.0 mph 98 % 0.00 in 9 W/m2
08:50 41.5 °F 41.0 °F 30.53 in Calm   8.0 mph 98 % 0.00 in 12 W/m2
08:55 41.5 °F 41.0 °F 30.53 in Calm   8.0 mph 98 % 0.00 in 14 W/m2
09:00 41.6 °F 41.1 °F 30.53 in Calm   8.0 mph 98 % 0.00 in 14 W/m2
09:05 41.6 °F 41.1 °F 30.53 in Calm   8.0 mph 98 % 0.00 in 14 W/m2
09:10 41.6 °F 41.1 °F 30.53 in Calm   8.0 mph 98 % 0.00 in 14 W/m2
09:15 41.5 °F 41.0 °F 30.53 in SSE 2.0 mph 8.0 mph 98 % 0.00 in 16 W/m2
09:20 41.5 °F 41.0 °F 30.53 in SSE 2.0 mph 2.0 mph 98 % 0.00 in 18 W/m2
09:25 41.6 °F 41.1 °F 30.53 in Calm   8.0 mph 98 % 0.00 in 21 W/m2
09:35 41.6 °F 41.1 °F 30.53 in Calm   8.0 mph 98 % 0.00 in 23 W/m2
09:40 41.7 °F 41.2 °F 30.53 in South 1.0 mph 8.0 mph 98 % 0.00 in 23 W/m2
09:45 41.7 °F 41.2 °F 30.54 in South 1.0 mph 8.0 mph 98 % 0.00 in 28 W/m2
09:50 41.7 °F 41.2 °F 30.54 in SSW 1.0 mph 1.0 mph 98 % 0.00 in 32 W/m2
09:55 41.8 °F 41.3 °F 30.54 in SSW 1.0 mph 8.0 mph 98 % 0.00 in 35 W/m2
10:00 41.9 °F 41.4 °F 30.54 in Calm   8.0 mph 98 % 0.00 in 39 W/m2
10:05 41.9 °F 41.4 °F 30.54 in SSW 1.0 mph 8.0 mph 98 % 0.00 in 40 W/m2
10:15 42.0 °F 41.5 °F 30.54 in SW 1.0 mph 8.0 mph 98 % 0.00 in 46 W/m2
10:20 42.0 °F 41.7 °F 30.54 in SW 1.0 mph 8.0 mph 99 % 0.00 in 47 W/m2
10:25 42.1 °F 41.8 °F 30.54 in SW 1.0 mph 8.0 mph 99 % 0.00 in 49 W/m2
10:30 42.2 °F 41.7 °F 30.54 in Calm   8.0 mph 98 % 0.00 in 49 W/m2
10:35 42.3 °F 41.8 °F 30.54 in Calm   8.0 mph 98 % 0.00 in 47 W/m2
10:40 42.4 °F 41.9 °F 30.54 in Calm   8.0 mph 98 % 0.00 in 49 W/m2
10:50 42.7 °F 42.4 °F 30.55 in Calm   8.0 mph 99 % 0.00 in 67 W/m2
10:55 42.8 °F 42.5 °F 30.54 in Calm   8.0 mph 99 % 0.00 in 72 W/m2
11:00 42.8 °F 42.5 °F 30.54 in Calm   8.0 mph 99 % 0.00 in 74 W/m2
11:05 42.9 °F 42.6 °F 30.54 in Calm   8.0 mph 99 % 0.00 in 74 W/m2
11:10 43.1 °F 42.6 °F 30.54 in Calm   8.0 mph 98 % 0.00 in 72 W/m2
11:20 43.4 °F 43.1 °F 30.54 in Calm   8.0 mph 99 % 0.00 in 76 W/m2
11:25 43.5 °F 43.0 °F 30.54 in Calm   8.0 mph 98 % 0.00 in 77 W/m2
11:30 43.7 °F 43.2 °F 30.54 in Calm   8.0 mph 98 % 0.00 in 84 W/m2
11:35 43.8 °F 43.5 °F 30.54 in SW 1.0 mph 8.0 mph 99 % 0.00 in 84 W/m2
11:40 43.9 °F 43.6 °F 30.54 in WNW 2.0 mph 2.0 mph 99 % 0.00 in 76 W/m2
11:45 44.1 °F 43.8 °F 30.54 in WSW 2.0 mph 8.0 mph 99 % 0.00 in 69 W/m2
11:50 44.1 °F 43.6 °F 30.54 in WSW 1.0 mph 8.0 mph 98 % 0.00 in 62 W/m2
12:00 44.1 °F 43.6 °F 30.54 in SW 1.0 mph 8.0 mph 98 % 0.00 in 77 W/m2
12:05 44.2 °F 43.7 °F 30.54 in SW 2.0 mph 8.0 mph 98 % 0.00 in 83 W/m2
12:10 44.3 °F 43.8 °F 30.54 in SW 1.0 mph 8.0 mph 98 % 0.00 in 90 W/m2
12:15 44.4 °F 43.9 °F 30.54 in SW 2.0 mph 8.0 mph 98 % 0.00 in 84 W/m2
12:20 44.5 °F 44.0 °F 30.54 in SW 2.0 mph 8.0 mph 98 % 0.00 in 79 W/m2
12:25 44.6 °F 44.1 °F 30.54 in SW 2.0 mph 8.0 mph 98 % 0.00 in 77 W/m2
12:35 44.7 °F 44.2 °F 30.53 in WSW 3.0 mph 8.0 mph 98 % 0.00 in 72 W/m2
12:45 44.8 °F 44.3 °F 30.53 in WSW 2.0 mph 8.0 mph 98 % 0.00 in 72 W/m2
12:50 44.8 °F 44.3 °F 30.54 in SW 2.0 mph 2.0 mph 98 % 0.00 in 72 W/m2
12:55 44.9 °F 44.4 °F 30.53 in SW 2.0 mph 8.0 mph 98 % 0.00 in 74 W/m2
13:00 45.0 °F 44.2 °F 30.53 in SW 1.0 mph 8.0 mph 97 % 0.00 in 72 W/m2
13:05 45.1 °F 44.6 °F 30.53 in SSW 1.0 mph 8.0 mph 98 % 0.00 in 76 W/m2
13:15 45.1 °F 44.3 °F 30.53 in SSW 2.0 mph 8.0 mph 97 % 0.00 in 63 W/m2
13:25 45.2 °F 44.4 °F 30.53 in SSW 1.0 mph 8.0 mph 97 % 0.00 in 51 W/m2
13:30 45.3 °F 44.5 °F 30.53 in Calm   8.0 mph 97 % 0.00 in 47 W/m2
13:35 45.4 °F 44.6 °F 30.53 in Calm   8.0 mph 97 % 0.00 in 51 W/m2
13:40 45.5 °F 44.7 °F 30.53 in Calm   8.0 mph 97 % 0.00 in 51 W/m2
13:45 45.5 °F 44.7 °F 30.53 in Calm   8.0 mph 97 % 0.00 in 49 W/m2
13:50 45.6 °F 44.8 °F 30.53 in Calm   8.0 mph 97 % 0.00 in 44 W/m2
13:55 45.6 °F 44.8 °F 30.53 in Calm   8.0 mph 97 % 0.00 in 40 W/m2
14:05 45.7 °F 44.6 °F 30.53 in Calm   8.0 mph 96 % 0.00 in 39 W/m2
14:10 45.9 °F 44.8 °F 30.53 in Calm   8.0 mph 96 % 0.00 in 32 W/m2
14:15 45.9 °F 44.8 °F 30.53 in Calm   8.0 mph 96 % 0.00 in 25 W/m2
14:20 45.9 °F 44.8 °F 30.53 in Calm   8.0 mph 96 % 0.00 in 23 W/m2
14:25 45.7 °F 44.6 °F 30.53 in SSW 1.0 mph 8.0 mph 96 % 0.00 in 25 W/m2
14:30 45.7 °F 44.6 °F 30.53 in Calm   8.0 mph 96 % 0.00 in 23 W/m2
14:35 45.7 °F 44.6 °F 30.53 in Calm   8.0 mph 96 % 0.00 in 25 W/m2
14:40 45.7 °F 44.6 °F 30.53 in Calm   8.0 mph 96 % 0.00 in 23 W/m2
14:50 45.6 °F 44.5 °F 30.53 in SSW 1.0 mph 8.0 mph 96 % 0.00 in 23 W/m2
14:55 45.5 °F 44.4 °F 30.53 in SSW 1.0 mph 8.0 mph 96 % 0.00 in 23 W/m2
15:00 45.5 °F 44.4 °F 30.53 in SSW 1.0 mph 8.0 mph 96 % 0.00 in 23 W/m2
15:05 45.5 °F 44.4 °F 30.53 in SSW 1.0 mph 8.0 mph 96 % 0.00 in 21 W/m2
15:10 45.5 °F 44.4 °F 30.53 in South 1.0 mph 8.0 mph 96 % 0.00 in 19 W/m2
15:15 45.4 °F 44.3 °F 30.53 in South 1.0 mph 8.0 mph 96 % 0.00 in 18 W/m2
15:20 45.4 °F 44.3 °F 30.53 in Calm   8.0 mph 96 % 0.00 in 18 W/m2
15:21 45.5 °F 44.4 °F 30.53 in South 1.0 mph -999.0 mph 96 % 0.00 in 20 W/m2
15:26 45.4 °F 44.3 °F 30.53 in Calm   -999.0 mph 96 % 0.00 in 17 W/m2
15:30 45.3 °F 44.2 °F 30.53 in Calm   8.0 mph 96 % 0.00 in 14 W/m2
15:31 45.4 °F 44.3 °F 30.53 in Calm   -999.0 mph 96 % 0.00 in 17 W/m2
15:35 45.3 °F 44.2 °F 30.53 in South 1.0 mph 8.0 mph 96 % 0.00 in 12 W/m2
15:36 45.4 °F 44.3 °F 30.53 in Calm   -999.0 mph 96 % 0.00 in 17 W/m2
15:40 45.2 °F 44.1 °F 30.53 in South 1.0 mph 1.0 mph 96 % 0.00 in 11 W/m2
15:41 45.2 °F 44.1 °F 30.53 in Calm   -999.0 mph 96 % 0.00 in 11 W/m2
15:45 45.1 °F 44.0 °F 30.53 in Calm   8.0 mph 96 % 0.00 in 9 W/m2
15:46 45.2 °F 44.1 °F 30.53 in Calm   -999.0 mph 96 % 0.00 in 11 W/m2
15:50 45.1 °F 44.0 °F 30.53 in Calm   8.0 mph 96 % 0.00 in 9 W/m2
15:51 45.2 °F 44.1 °F 30.53 in Calm   -999.0 mph 96 % 0.00 in 11 W/m2
15:55 45.0 °F 43.9 °F 30.53 in Calm   8.0 mph 96 % 0.00 in 7 W/m2
15:56 45.0 °F 43.9 °F 30.54 in South 1.0 mph -999.0 mph 96 % 0.00 in 7 W/m2
16:01 45.0 °F 43.9 °F 30.54 in South 1.0 mph -999.0 mph 96 % 0.00 in 7 W/m2
16:05 45.0 °F 43.9 °F 30.53 in South 1.0 mph 8.0 mph 96 % 0.00 in 5 W/m2
16:06 45.0 °F 43.9 °F 30.54 in South 1.0 mph -999.0 mph 96 % 0.00 in 7 W/m2
16:10 45.0 °F 43.9 °F 30.53 in Calm   8.0 mph 96 % 0.00 in 0 W/m2
16:11 45.0 °F 43.9 °F 30.53 in Calm   -999.0 mph 96 % 0.00 in 3 W/m2
16:15 45.0 °F 43.9 °F 30.53 in Calm   8.0 mph 96 % 0.00 in 0 W/m2
16:16 45.0 °F 43.9 °F 30.53 in Calm   -999.0 mph 96 % 0.00 in 3 W/m2
16:20 45.0 °F 43.9 °F 30.53 in Calm   8.0 mph 96 % 0.00 in 0 W/m2
16:21 45.0 °F 43.9 °F 30.53 in Calm   -999.0 mph 96 % 0.00 in 3 W/m2
16:25 45.0 °F 43.9 °F 30.53 in Calm   8.0 mph 96 % 0.00 in 0 W/m2
16:26 45.0 °F 44.2 °F 30.53 in Calm   -999.0 mph 97 % 0.00 in 0 W/m2
16:30 45.0 °F 44.2 °F 30.53 in Calm   8.0 mph 97 % 0.00 in 0 W/m2
16:31 45.0 °F 44.2 °F 30.53 in Calm   -999.0 mph 97 % 0.00 in 0 W/m2
16:36 45.0 °F 44.2 °F 30.53 in Calm   -999.0 mph 97 % 0.00 in 0 W/m2
16:40 45.0 °F 44.2 °F 30.54 in Calm   8.0 mph 97 % 0.00 in 0 W/m2
16:41 45.0 °F 44.2 °F 30.54 in Calm   -999.0 mph 97 % 0.00 in 0 W/m2
16:45 45.0 °F 44.2 °F 30.54 in Calm   8.0 mph 97 % 0.00 in 0 W/m2
16:46 45.0 °F 44.2 °F 30.54 in Calm   -999.0 mph 97 % 0.00 in 0 W/m2
16:50 45.0 °F 44.2 °F 30.54 in Calm   8.0 mph 97 % 0.00 in 0 W/m2
16:51 45.0 °F 44.2 °F 30.54 in Calm   -999.0 mph 97 % 0.00 in 0 W/m2
16:55 45.0 °F 44.2 °F 30.54 in Calm   8.0 mph 97 % 0.00 in 0 W/m2
16:56 45.0 °F 44.2 °F 30.54 in Calm   -999.0 mph 97 % 0.00 in 0 W/m2
17:00 45.0 °F 44.2 °F 30.54 in Calm   8.0 mph 97 % 0.00 in 0 W/m2
17:01 45.0 °F 44.2 °F 30.54 in Calm   -999.0 mph 97 % 0.00 in 0 W/m2
17:05 45.0 °F 44.2 °F 30.54 in Calm   8.0 mph 97 % 0.00 in 0 W/m2
17:06 45.0 °F 44.2 °F 30.54 in Calm   -999.0 mph 97 % 0.00 in 0 W/m2
17:10 45.0 °F 44.2 °F 30.54 in Calm   8.0 mph 97 % 0.00 in 0 W/m2
17:11 45.0 °F 44.2 °F 30.54 in Calm   -999.0 mph 97 % 0.00 in 0 W/m2
17:16 45.0 °F 44.2 °F 30.54 in Calm   -999.0 mph 97 % 0.00 in 0 W/m2
17:20 45.0 °F 44.2 °F 30.54 in Calm   8.0 mph 97 % 0.00 in 0 W/m2
17:21 45.0 °F 44.2 °F 30.54 in Calm   -999.0 mph 97 % 0.00 in 0 W/m2
17:25 45.0 °F 44.2 °F 30.54 in Calm   8.0 mph 97 % 0.00 in 0 W/m2
17:26 45.0 °F 44.2 °F 30.54 in Calm   -999.0 mph 97 % 0.00 in 0 W/m2
17:31 45.0 °F 44.2 °F 30.54 in Calm   -999.0 mph 97 % 0.00 in 0 W/m2
17:35 44.9 °F 44.1 °F 30.55 in Calm   8.0 mph 97 % 0.00 in 0 W/m2
17:36 45.0 °F 44.2 °F 30.54 in Calm   -999.0 mph 97 % 0.00 in 0 W/m2
17:40 44.9 °F 44.1 °F 30.55 in Calm   8.0 mph 97 % 0.00 in 0 W/m2
17:41 44.9 °F 44.1 °F 30.55 in Calm   -999.0 mph 97 % 0.00 in 0 W/m2
17:45 44.9 °F 44.1 °F 30.55 in Calm   8.0 mph 97 % 0.00 in 0 W/m2
17:46 44.9 °F 44.1 °F 30.55 in Calm   -999.0 mph 97 % 0.00 in 0 W/m2
17:51 44.9 °F 44.1 °F 30.55 in Calm   -999.0 mph 97 % 0.00 in 0 W/m2
17:55 44.9 °F 44.1 °F 30.55 in Calm   8.0 mph 97 % 0.00 in 0 W/m2
17:56 44.9 °F 44.1 °F 30.55 in Calm   -999.0 mph 97 % 0.00 in 0 W/m2
18:01 44.9 °F 44.1 °F 30.55 in Calm   -999.0 mph 97 % 0.00 in 0 W/m2
18:05 45.0 °F 44.2 °F 30.55 in Calm   8.0 mph 97 % 0.00 in 0 W/m2
18:06 44.9 °F 44.1 °F 30.55 in Calm   -999.0 mph 97 % 0.00 in 0 W/m2
18:10 45.0 °F 44.2 °F 30.55 in Calm   8.0 mph 97 % 0.00 in 0 W/m2
18:11 45.0 °F 44.2 °F 30.55 in Calm   -999.0 mph 97 % 0.00 in 0 W/m2
18:15 45.0 °F 44.2 °F 30.55 in Calm   8.0 mph 97 % 0.00 in 0 W/m2
18:16 45.0 °F 44.2 °F 30.55 in Calm   -999.0 mph 97 % 0.00 in 0 W/m2
18:20 44.9 °F 44.1 °F 30.55 in Calm   8.0 mph 97 % 0.00 in 0 W/m2
18:21 45.0 °F 44.2 °F 30.55 in Calm   -999.0 mph 97 % 0.00 in 0 W/m2
18:25 44.9 °F 44.1 °F 30.55 in Calm   8.0 mph 97 % 0.00 in 0 W/m2
18:26 44.9 °F 44.1 °F 30.56 in Calm   -999.0 mph 97 % 0.00 in 0 W/m2
18:30 44.9 °F 44.1 °F 30.56 in Calm   8.0 mph 97 % 0.00 in 0 W/m2
18:31 44.9 °F 44.1 °F 30.56 in Calm   -999.0 mph 97 % 0.00 in 0 W/m2
18:35 44.9 °F 44.1 °F 30.55 in Calm   8.0 mph 97 % 0.00 in 0 W/m2
18:36 44.9 °F 44.1 °F 30.56 in Calm   -999.0 mph 97 % 0.00 in 0 W/m2
18:41 44.8 °F 44.0 °F 30.55 in Calm   -999.0 mph 97 % 0.00 in 0 W/m2
18:45 44.8 °F 44.0 °F 30.55 in Calm   8.0 mph 97 % 0.00 in 0 W/m2
18:46 44.8 °F 44.0 °F 30.55 in Calm   -999.0 mph 97 % 0.00 in 0 W/m2
18:50 44.8 °F 44.0 °F 30.55 in Calm   8.0 mph 97 % 0.00 in 0 W/m2
18:51 44.8 °F 44.0 °F 30.55 in Calm   -999.0 mph 97 % 0.00 in 0 W/m2
18:55 44.8 °F 44.0 °F 30.55 in Calm   8.0 mph 97 % 0.00 in 0 W/m2
18:56 44.8 °F 44.0 °F 30.55 in Calm   -999.0 mph 97 % 0.00 in 0 W/m2
19:00 44.8 °F 44.0 °F 30.55 in Calm   8.0 mph 97 % 0.00 in 0 W/m2
19:01 44.8 °F 44.0 °F 30.55 in Calm   -999.0 mph 97 % 0.00 in 0 W/m2
19:05 44.8 °F 44.0 °F 30.55 in Calm   8.0 mph 97 % 0.00 in 0 W/m2
19:06 44.8 °F 44.0 °F 30.55 in Calm   -999.0 mph 97 % 0.00 in 0 W/m2
19:10 44.7 °F 43.9 °F 30.55 in Calm   8.0 mph 97 % 0.00 in 0 W/m2
19:11 44.7 °F 43.9 °F 30.56 in Calm   -999.0 mph 97 % 0.00 in 0 W/m2
19:16 44.7 °F 43.9 °F 30.56 in Calm   -999.0 mph 97 % 0.00 in 0 W/m2
19:20 44.7 °F 43.9 °F 30.56 in Calm   8.0 mph 97 % 0.00 in 0 W/m2
19:21 44.7 °F 43.9 °F 30.56 in Calm   -999.0 mph 97 % 0.00 in 0 W/m2
19:25 44.6 °F 43.8 °F 30.56 in Calm   8.0 mph 97 % 0.00 in 0 W/m2
19:26 44.6 °F 43.8 °F 30.56 in Calm   -999.0 mph 97 % 0.00 in 0 W/m2
19:30 44.6 °F 43.8 °F 30.56 in Calm   8.0 mph 97 % 0.00 in 0 W/m2
19:31 44.6 °F 43.8 °F 30.56 in Calm   -999.0 mph 97 % 0.00 in 0 W/m2
19:36 44.6 °F 43.8 °F 30.56 in Calm   -999.0 mph 97 % 0.00 in 0 W/m2
19:40 44.5 °F 43.7 °F 30.56 in Calm   8.0 mph 97 % 0.00 in 0 W/m2
19:41 44.5 °F 43.7 °F 30.56 in Calm   -999.0 mph 97 % 0.00 in 0 W/m2
19:45 44.5 °F 43.7 °F 30.56 in Calm   8.0 mph 97 % 0.00 in 0 W/m2
19:46 44.5 °F 43.7 °F 30.56 in Calm   -999.0 mph 97 % 0.00 in 0 W/m2
19:50 44.5 °F 43.7 °F 30.56 in South 1.0 mph 1.0 mph 97 % 0.00 in 0 W/m2
19:51 44.5 °F 43.7 °F 30.56 in Calm   -999.0 mph 97 % 0.00 in 0 W/m2
19:56 44.4 °F 43.6 °F 30.56 in South 1.0 mph -999.0 mph 97 % 0.00 in 0 W/m2
20:00 44.4 °F 43.6 °F 30.56 in Calm   8.0 mph 97 % 0.00 in 0 W/m2
20:01 44.4 °F 43.6 °F 30.56 in South 1.0 mph -999.0 mph 97 % 0.00 in 0 W/m2
20:05 44.3 °F 43.5 °F 30.56 in Calm   8.0 mph 97 % 0.00 in 0 W/m2
20:06 44.4 °F 43.6 °F 30.56 in South 1.0 mph -999.0 mph 97 % 0.00 in 0 W/m2
20:10 44.3 °F 43.5 °F 30.56 in Calm   8.0 mph 97 % 0.00 in 0 W/m2
20:11 44.3 °F 43.5 °F 30.56 in Calm   -999.0 mph 97 % 0.00 in 0 W/m2
20:15 44.2 °F 43.4 °F 30.56 in Calm   8.0 mph 97 % 0.00 in 0 W/m2
20:16 44.3 °F 43.5 °F 30.56 in Calm   -999.0 mph 97 % 0.00 in 0 W/m2
20:20 44.2 °F 43.4 °F 30.56 in Calm   8.0 mph 97 % 0.00 in 0 W/m2
20:21 44.3 °F 43.5 °F 30.56 in Calm   -999.0 mph 97 % 0.00 in 0 W/m2
20:25 44.2 °F 43.4 °F 30.56 in Calm   8.0 mph 97 % 0.00 in 0 W/m2
20:26 44.2 °F 43.4 °F 30.56 in Calm   -999.0 mph 97 % 0.00 in 0 W/m2
20:31 44.2 °F 43.4 °F 30.56 in Calm   -999.0 mph 97 % 0.00 in 0 W/m2
20:35 44.1 °F 43.3 °F 30.56 in Calm   8.0 mph 97 % 0.00 in 0 W/m2
20:36 44.2 °F 43.4 °F 30.56 in Calm   -999.0 mph 97 % 0.00 in 0 W/m2
20:40 44.1 °F 43.3 °F 30.56 in Calm   8.0 mph 97 % 0.00 in 0 W/m2
20:41 44.1 °F 43.3 °F 30.56 in Calm   -999.0 mph 97 % 0.00 in 0 W/m2
20:45 44.1 °F 43.3 °F 30.56 in Calm   8.0 mph 97 % 0.00 in 0 W/m2
20:46 44.1 °F 43.3 °F 30.56 in Calm   -999.0 mph 97 % 0.00 in 0 W/m2
20:50 44.1 °F 43.3 °F 30.56 in Calm   8.0 mph 97 % 0.00 in 0 W/m2
20:51 44.1 °F 43.3 °F 30.56 in Calm   -999.0 mph 97 % 0.00 in 0 W/m2
20:55 44.1 °F 43.3 °F 30.56 in Calm   8.0 mph 97 % 0.00 in 0 W/m2
20:56 44.1 °F 43.3 °F 30.56 in Calm   -999.0 mph 97 % 0.00 in 0 W/m2
21:00 44.1 °F 43.3 °F 30.56 in Calm   8.0 mph 97 % 0.00 in 0 W/m2
21:01 44.1 °F 43.3 °F 30.56 in Calm   -999.0 mph 97 % 0.00 in 0 W/m2
21:05 44.1 °F 43.3 °F 30.56 in Calm   8.0 mph 97 % 0.00 in 0 W/m2
21:06 44.1 °F 43.3 °F 30.56 in Calm   -999.0 mph 97 % 0.00 in 0 W/m2
21:10 44.1 °F 43.3 °F 30.56 in Calm   8.0 mph 97 % 0.00 in 0 W/m2
21:11 44.2 °F 43.4 °F 30.57 in Calm   -999.0 mph 97 % 0.00 in 0 W/m2
21:16 44.2 °F 43.4 °F 30.57 in Calm   -999.0 mph 97 % 0.00 in 0 W/m2
21:20 44.2 °F 43.4 °F 30.57 in Calm   8.0 mph 97 % 0.00 in 0 W/m2
21:21 44.2 °F 43.4 °F 30.57 in Calm   -999.0 mph 97 % 0.00 in 0 W/m2
21:26 44.2 °F 43.4 °F 30.57 in Calm   -999.0 mph 97 % 0.00 in 0 W/m2
21:30 44.2 °F 43.4 °F 30.57 in Calm   8.0 mph 97 % 0.00 in 0 W/m2
21:31 44.2 °F 43.4 °F 30.57 in Calm   -999.0 mph 97 % 0.00 in 0 W/m2
21:35 44.2 °F 43.4 °F 30.57 in Calm   8.0 mph 97 % 0.00 in 0 W/m2
21:36 44.2 °F 43.4 °F 30.57 in Calm   -999.0 mph 97 % 0.00 in 0 W/m2
21:40 44.2 °F 43.4 °F 30.57 in Calm   8.0 mph 97 % 0.00 in 0 W/m2
21:41 44.2 °F 43.4 °F 30.57 in South 1.0 mph -999.0 mph 97 % 0.00 in 0 W/m2
21:45 44.2 °F 43.4 °F 30.57 in East 2.0 mph 8.0 mph 97 % 0.00 in 0 W/m2
21:46 44.2 °F 43.4 °F 30.57 in South 1.0 mph -999.0 mph 97 % 0.00 in 0 W/m2
21:51 44.2 °F 43.4 °F 30.57 in South 1.0 mph -999.0 mph 97 % 0.00 in 0 W/m2
21:55 44.0 °F 43.2 °F 30.57 in East 2.0 mph 8.0 mph 97 % 0.00 in 0 W/m2
21:56 44.1 °F 43.3 °F 30.57 in East 1.0 mph -999.0 mph 97 % 0.00 in 0 W/m2
22:00 44.0 °F 43.2 °F 30.57 in Calm   8.0 mph 97 % 0.00 in 0 W/m2
22:01 44.1 °F 43.3 °F 30.57 in East 1.0 mph -999.0 mph 97 % 0.00 in 0 W/m2
22:05 43.9 °F 43.1 °F 30.58 in Calm   8.0 mph 97 % 0.00 in 0 W/m2
22:06 44.1 °F 43.3 °F 30.57 in East 1.0 mph -999.0 mph 97 % 0.00 in 0 W/m2
22:10 43.9 °F 43.1 °F 30.58 in Calm   8.0 mph 97 % 0.00 in 0 W/m2
22:11 44.0 °F 43.2 °F 30.58 in Calm   -999.0 mph 97 % 0.00 in 0 W/m2
22:15 43.9 °F 43.1 °F 30.58 in Calm   8.0 mph 97 % 0.00 in 0 W/m2
22:16 44.0 °F 43.2 °F 30.58 in Calm   -999.0 mph 97 % 0.00 in 0 W/m2
22:20 43.9 °F 43.1 °F 30.58 in Calm   8.0 mph 97 % 0.00 in 0 W/m2
22:21 44.0 °F 43.2 °F 30.58 in Calm   -999.0 mph 97 % 0.00 in 0 W/m2
22:26 43.9 °F 43.1 °F 30.58 in Calm   -999.0 mph 97 % 0.01 in 0 W/m2
22:30 43.9 °F 43.1 °F 30.58 in Calm   8.0 mph 97 % 0.00 in 0 W/m2
22:31 43.9 °F 43.1 °F 30.58 in Calm   -999.0 mph 97 % 0.01 in 0 W/m2
22:36 43.9 °F 43.1 °F 30.58 in Calm   -999.0 mph 97 % 0.01 in 0 W/m2
22:40 43.9 °F 43.1 °F 30.58 in Calm   8.0 mph 97 % 0.00 in 0 W/m2
22:41 43.9 °F 43.1 °F 30.57 in Calm   -999.0 mph 97 % 0.01 in 0 W/m2
22:45 43.9 °F 43.1 °F 30.57 in Calm   8.0 mph 97 % 0.00 in 0 W/m2
22:46 43.9 °F 43.1 °F 30.57 in Calm   -999.0 mph 97 % 0.01 in 0 W/m2
22:50 44.0 °F 43.2 °F 30.57 in East 1.0 mph 8.0 mph 97 % 0.00 in 0 W/m2
22:51 43.9 °F 43.1 °F 30.57 in Calm   -999.0 mph 97 % 0.01 in 0 W/m2
22:55 43.9 °F 43.1 °F 30.57 in WNW 1.0 mph 8.0 mph 97 % 0.00 in 0 W/m2
22:56 44.0 °F 43.2 °F 30.57 in WNW 2.0 mph -999.0 mph 97 % 0.01 in 0 W/m2
23:00 44.0 °F 43.2 °F 30.57 in West 2.0 mph 2.0 mph 97 % 0.00 in 0 W/m2
23:01 44.0 °F 43.2 °F 30.57 in WNW 2.0 mph -999.0 mph 97 % 0.01 in 0 W/m2
23:05 44.0 °F 43.2 °F 30.57 in West 1.0 mph 8.0 mph 97 % 0.00 in 0 W/m2
23:06 44.0 °F 43.2 °F 30.57 in WNW 2.0 mph -999.0 mph 97 % 0.01 in 0 W/m2
23:11 43.9 °F 43.1 °F 30.57 in Calm   -999.0 mph 97 % 0.01 in 0 W/m2
23:15 43.9 °F 43.1 °F 30.57 in Calm   8.0 mph 97 % 0.00 in 0 W/m2
23:16 43.9 °F 43.1 °F 30.57 in Calm   -999.0 mph 97 % 0.01 in 0 W/m2
23:20 43.9 °F 43.1 °F 30.57 in Calm   8.0 mph 97 % 0.00 in 0 W/m2
23:21 43.9 °F 43.1 °F 30.57 in Calm   -999.0 mph 97 % 0.01 in 0 W/m2
23:25 43.9 °F 43.1 °F 30.57 in WNW 2.0 mph 8.0 mph 97 % 0.00 in 0 W/m2
23:26 43.9 °F 43.1 °F 30.57 in WNW 2.0 mph -999.0 mph 97 % 0.00 in 0 W/m2
23:30 44.0 °F 43.2 °F 30.57 in WNW 2.0 mph 2.0 mph 97 % 0.00 in 0 W/m2
23:31 43.9 °F 43.1 °F 30.57 in WNW 2.0 mph -999.0 mph 97 % 0.00 in 0 W/m2
23:35 44.1 °F 43.6 °F 30.57 in West 2.0 mph 8.0 mph 98 % 0.00 in 0 W/m2
23:36 43.9 °F 43.1 °F 30.57 in WNW 2.0 mph -999.0 mph 97 % 0.00 in 0 W/m2
23:40 44.1 °F 43.6 °F 30.57 in West 1.0 mph 1.0 mph 98 % 0.00 in 0 W/m2
23:41 44.1 °F 43.6 °F 30.57 in West 1.0 mph -999.0 mph 98 % 0.00 in 0 W/m2
23:46 44.1 °F 43.6 °F 30.57 in West 1.0 mph -999.0 mph 98 % 0.00 in 0 W/m2
23:50 44.1 °F 43.6 °F 30.57 in Calm   8.0 mph 98 % 0.00 in 0 W/m2
23:51 44.1 °F 43.6 °F 30.57 in West 1.0 mph -999.0 mph 98 % 0.00 in 0 W/m2
23:55 44.1 °F 43.6 °F 30.57 in Calm   8.0 mph 98 % 0.00 in 0 W/m2
23:56 44.1 °F 43.6 °F 30.57 in WNW 2.0 mph -999.0 mph 98 % 0.00 in 0 W/m2
Delerius-Weather
Compliments of Weather Underground - 2.75 mb

Data updates at regular intervals.